TAF and METAR

Decoding for American and Canadian METARs and TAFs is not fully implemented.

Could not understand the following METAR

CWEU 230300Z 15003KT 1 1/2SM IC BKN009 M39/M43 A2966 RMK IC3ST2 LAST OBS/ NEXT 230600 UTC SLP047
No TAF available for Eureka